createdAt,value
2018-12-29T00:01:19.952Z,60.24
2018-12-29T00:04:22.034Z,60.16
2018-12-29T00:07:23.938Z,60.20
2018-12-29T00:10:25.913Z,60.33
2018-12-29T00:13:27.897Z,60.31
2018-12-29T00:16:29.950Z,60.33
2018-12-29T00:19:31.959Z,60.44
2018-12-29T00:22:33.983Z,60.61
2018-12-29T00:25:35.956Z,60.59
2018-12-29T00:28:38.004Z,60.62
2018-12-29T00:31:40.003Z,60.77
2018-12-29T00:34:42.029Z,60.81
2018-12-29T00:37:43.980Z,60.83
2018-12-29T00:40:45.979Z,60.95
2018-12-29T00:43:47.952Z,61.18
2018-12-29T00:46:49.963Z,61.32
2018-12-29T00:49:51.910Z,61.37
2018-12-29T00:52:53.845Z,61.56
2018-12-29T00:55:55.809Z,61.53
2018-12-29T00:58:57.753Z,61.54
2018-12-29T01:01:59.913Z,61.49
2018-12-29T01:05:01.953Z,61.46
2018-12-29T01:08:05.078Z,61.56
2018-12-29T01:11:06.984Z,61.64
2018-12-29T01:14:08.911Z,61.64
2018-12-29T01:17:10.945Z,61.83
2018-12-29T01:20:13.073Z,61.96
2018-12-29T01:23:14.975Z,62.11
2018-12-29T01:26:16.978Z,62.26
2018-12-29T01:29:18.989Z,62.26
2018-12-29T01:32:20.945Z,62.20
2018-12-29T01:35:22.889Z,62.10
2018-12-29T01:38:24.897Z,61.89
2018-12-29T01:41:26.823Z,61.84
2018-12-29T01:44:28.800Z,61.89
2018-12-29T01:47:30.713Z,61.92
2018-12-29T01:50:32.654Z,61.90
2018-12-29T01:53:34.654Z,61.83
2018-12-29T01:56:36.618Z,61.70
2018-12-29T01:59:38.508Z,61.95
2018-12-29T02:02:40.606Z,62.11
2018-12-29T02:05:42.585Z,62.14
2018-12-29T02:08:44.529Z,62.13
2018-12-29T02:11:46.489Z,62.09
2018-12-29T02:14:48.472Z,61.95
2018-12-29T02:17:50.462Z,61.88
2018-12-29T02:20:52.391Z,61.84
2018-12-29T02:23:54.453Z,61.78
2018-12-29T02:26:56.457Z,61.71
2018-12-29T02:29:58.470Z,61.72
2018-12-29T02:33:00.452Z,61.70
2018-12-29T02:36:02.594Z,61.70
2018-12-29T02:39:05.336Z,61.72
2018-12-29T02:42:07.366Z,61.77
2018-12-29T02:45:09.299Z,61.95
2018-12-29T02:48:11.261Z,61.93
2018-12-29T02:51:13.311Z,61.91
2018-12-29T02:54:15.346Z,61.89
2018-12-29T02:57:17.243Z,61.88
2018-12-29T03:00:19.300Z,61.92
2018-12-29T03:03:21.439Z,61.88
2018-12-29T03:06:23.517Z,61.99
2018-12-29T03:09:25.588Z,61.97
2018-12-29T03:12:27.500Z,61.79
2018-12-29T03:15:29.493Z,61.71
2018-12-29T03:18:31.434Z,61.69
2018-12-29T03:21:33.685Z,61.62
2018-12-29T03:24:35.577Z,61.64
2018-12-29T03:27:37.589Z,61.69
2018-12-29T03:30:39.483Z,61.79
2018-12-29T03:33:41.466Z,61.87
2018-12-29T03:36:43.478Z,61.84
2018-12-29T03:39:45.381Z,62.00
2018-12-29T03:42:47.616Z,62.26
2018-12-29T03:45:49.609Z,62.39
2018-12-29T03:48:51.604Z,62.44
2018-12-29T03:51:53.628Z,62.37
2018-12-29T03:54:55.511Z,62.22
2018-12-29T03:57:57.518Z,61.98
2018-12-29T04:00:59.479Z,61.86
2018-12-29T04:04:01.559Z,61.86
2018-12-29T04:07:03.565Z,61.93
2018-12-29T04:10:09.169Z,61.89
2018-12-29T04:13:11.115Z,61.94
2018-12-29T04:16:13.046Z,61.94
2018-12-29T04:19:15.036Z,62.04
2018-12-29T04:22:17.051Z,62.08
2018-12-29T04:25:20.790Z,62.20
2018-12-29T04:28:23.116Z,62.34
2018-12-29T04:31:25.013Z,62.39
2018-12-29T04:34:26.960Z,62.43
2018-12-29T04:37:29.001Z,62.38
2018-12-29T04:40:30.891Z,62.27
2018-12-29T04:43:32.874Z,62.23
2018-12-29T04:46:34.833Z,62.26
2018-12-29T04:49:36.755Z,62.27
2018-12-29T04:52:38.734Z,62.18
2018-12-29T04:55:40.650Z,62.20
2018-12-29T04:58:42.595Z,62.24
2018-12-29T05:01:44.555Z,62.22
2018-12-29T05:04:46.640Z,62.34
2018-12-29T05:07:48.638Z,62.42
2018-12-29T05:10:50.521Z,62.29
2018-12-29T05:13:52.578Z,62.26
2018-12-29T05:16:54.748Z,62.17
2018-12-29T05:19:56.737Z,62.22
2018-12-29T05:22:58.687Z,62.16
2018-12-29T05:26:00.744Z,62.17
2018-12-29T05:29:02.695Z,62.09
2018-12-29T05:32:04.715Z,62.08
2018-12-29T05:35:06.772Z,62.16
2018-12-29T05:38:08.743Z,62.28
2018-12-29T05:41:10.768Z,62.32
2018-12-29T05:44:12.664Z,62.31
2018-12-29T05:47:14.647Z,62.30
2018-12-29T05:50:16.626Z,62.36
2018-12-29T05:53:21.593Z,62.25
2018-12-29T05:56:23.696Z,62.42
2018-12-29T05:59:25.775Z,62.64
2018-12-29T06:02:27.738Z,62.63
2018-12-29T06:05:30.887Z,62.63
2018-12-29T06:08:32.915Z,62.68
2018-12-29T06:11:34.899Z,62.70
2018-12-29T06:14:37.631Z,62.70
2018-12-29T06:17:39.643Z,62.83
2018-12-29T06:20:41.686Z,62.86
2018-12-29T06:23:43.617Z,62.94
2018-12-29T06:26:45.672Z,63.01
2018-12-29T06:29:47.658Z,63.04
2018-12-29T06:32:49.684Z,63.08
2018-12-29T06:35:51.668Z,63.10
2018-12-29T06:38:54.111Z,62.98
2018-12-29T06:41:56.072Z,62.93
2018-12-29T06:44:58.124Z,62.89
2018-12-29T06:48:00.072Z,62.78
2018-12-29T06:51:02.159Z,62.64
2018-12-29T06:54:04.165Z,62.58
2018-12-29T06:57:06.108Z,62.67
2018-12-29T07:00:08.036Z,62.69
2018-12-29T07:03:10.105Z,62.80
2018-12-29T07:06:12.130Z,62.98
2018-12-29T07:09:14.147Z,63.02
2018-12-29T07:12:16.118Z,62.89
2018-12-29T07:15:18.042Z,62.88
2018-12-29T07:18:20.047Z,62.89
2018-12-29T07:21:22.091Z,62.97
2018-12-29T07:24:24.121Z,62.96
2018-12-29T07:27:26.040Z,62.91
2018-12-29T07:30:27.990Z,62.87
2018-12-29T07:33:29.972Z,62.99
2018-12-29T07:36:31.956Z,63.04
2018-12-29T07:39:33.965Z,63.02
2018-12-29T07:42:36.030Z,63.07
2018-12-29T07:45:38.173Z,63.05
2018-12-29T07:48:40.113Z,62.97
2018-12-29T07:51:42.061Z,62.93
2018-12-29T07:54:44.147Z,62.95
2018-12-29T07:57:46.114Z,62.79
2018-12-29T08:00:48.153Z,62.57
2018-12-29T08:03:50.093Z,62.58
2018-12-29T08:06:52.077Z,62.44
2018-12-29T08:09:53.990Z,62.36
2018-12-29T08:12:56.009Z,62.33
2018-12-29T08:15:58.075Z,62.34
2018-12-29T08:19:00.517Z,62.38
2018-12-29T08:22:02.751Z,62.32
2018-12-29T08:25:04.857Z,62.28
2018-12-29T08:28:06.919Z,62.25
2018-12-29T08:31:08.869Z,62.27
2018-12-29T08:34:10.854Z,62.23
2018-12-29T08:37:12.857Z,62.16
2018-12-29T08:40:14.914Z,62.10
2018-12-29T08:43:16.894Z,62.08
2018-12-29T08:46:19.024Z,61.95
2018-12-29T08:49:20.980Z,62.03
2018-12-29T08:52:23.363Z,62.04
2018-12-29T08:55:25.292Z,62.03
2018-12-29T08:58:27.339Z,62.15
2018-12-29T09:01:29.393Z,62.17
2018-12-29T09:04:31.472Z,62.06
2018-12-29T09:07:33.397Z,62.08
2018-12-29T09:10:35.348Z,62.01
2018-12-29T09:13:37.710Z,61.96
2018-12-29T09:16:39.707Z,62.06
2018-12-29T09:19:41.921Z,62.06
2018-12-29T09:22:44.027Z,62.23
2018-12-29T09:25:46.041Z,62.35
2018-12-29T09:28:48.059Z,62.52
2018-12-29T09:31:49.993Z,62.63
2018-12-29T09:34:52.016Z,62.61
2018-12-29T09:37:54.062Z,62.36
2018-12-29T09:40:56.131Z,62.14
2018-12-29T09:43:58.131Z,62.06
2018-12-29T09:47:00.207Z,62.12
2018-12-29T09:50:02.235Z,62.05
2018-12-29T09:53:04.203Z,62.07
2018-12-29T09:56:06.182Z,62.08
2018-12-29T09:59:08.179Z,62.08
2018-12-29T10:02:10.286Z,62.14
2018-12-29T10:05:12.263Z,61.94
2018-12-29T10:08:14.277Z,61.96
2018-12-29T10:11:16.290Z,62.02
2018-12-29T10:14:18.195Z,61.98
2018-12-29T10:17:26.788Z,61.96
2018-12-29T10:20:24.151Z,62.03
2018-12-29T10:23:26.279Z,61.96
2018-12-29T10:26:28.488Z,62.09
2018-12-29T10:29:30.588Z,62.16
2018-12-29T10:32:32.852Z,62.26
2018-12-29T10:35:34.973Z,62.00
2018-12-29T10:38:36.904Z,61.90
2018-12-29T10:41:38.952Z,61.94
2018-12-29T10:44:40.942Z,61.89
2018-12-29T10:47:42.886Z,61.80
2018-12-29T10:50:44.938Z,61.68
2018-12-29T10:53:47.023Z,61.59
2018-12-29T10:56:49.102Z,61.47
2018-12-29T10:59:51.107Z,61.69
2018-12-29T11:02:53.018Z,61.69
2018-12-29T11:05:55.054Z,61.47
2018-12-29T11:08:57.038Z,61.21
2018-12-29T11:11:58.937Z,61.00
2018-12-29T11:15:00.884Z,60.79
2018-12-29T11:18:02.771Z,61.03
2018-12-29T11:21:04.814Z,61.05
2018-12-29T11:24:06.923Z,61.21
2018-12-29T11:27:08.968Z,61.21
2018-12-29T11:30:11.009Z,61.27
2018-12-29T11:33:13.108Z,61.24
2018-12-29T11:36:15.287Z,61.31
2018-12-29T11:39:17.889Z,61.15
2018-12-29T11:42:19.943Z,61.05
2018-12-29T11:45:21.874Z,61.11
2018-12-29T11:48:23.916Z,60.99
2018-12-29T11:51:25.956Z,60.91
2018-12-29T11:54:28.001Z,60.86
2018-12-29T11:57:29.922Z,60.65
2018-12-29T12:00:31.814Z,60.75
2018-12-29T12:03:33.765Z,60.94
2018-12-29T12:06:35.796Z,61.00
2018-12-29T12:09:37.825Z,61.05
2018-12-29T12:12:39.830Z,61.11
2018-12-29T12:15:41.833Z,61.02
2018-12-29T12:18:43.758Z,61.05
2018-12-29T12:21:49.830Z,60.90
2018-12-29T12:29:12.626Z,60.82
2018-12-29T12:32:14.970Z,61.42
2018-12-29T12:35:16.983Z,61.34
2018-12-29T12:38:19.123Z,61.24
2018-12-29T12:41:21.096Z,60.99
2018-12-29T12:44:23.010Z,60.90
2018-12-29T12:47:24.959Z,60.89
2018-12-29T12:50:26.898Z,60.71
2018-12-29T12:53:28.881Z,60.65
2018-12-29T12:56:30.907Z,60.48
2018-12-29T12:59:32.934Z,60.41
2018-12-29T13:02:35.013Z,60.32
2018-12-29T13:05:37.014Z,60.33
2018-12-29T13:08:39.251Z,60.32
2018-12-29T13:11:41.226Z,60.36
2018-12-29T13:14:44.267Z,60.33
2018-12-29T13:17:46.288Z,60.33
2018-12-29T13:20:48.371Z,60.42
2018-12-29T13:23:50.409Z,60.33
2018-12-29T13:26:52.559Z,60.21
2018-12-29T13:29:54.748Z,60.10
2018-12-29T13:32:57.006Z,60.01
2018-12-29T13:35:59.189Z,60.04
2018-12-29T13:39:01.549Z,60.26
2018-12-29T13:42:03.589Z,60.15
2018-12-29T13:45:05.966Z,60.16
2018-12-29T13:48:07.951Z,60.22
2018-12-29T13:51:09.943Z,60.15
2018-12-29T13:54:12.041Z,60.10
2018-12-29T13:57:13.967Z,60.00
2018-12-29T14:00:15.929Z,60.08
2018-12-29T14:03:17.964Z,60.14
2018-12-29T14:19:11.326Z,61.22
2018-12-29T14:22:13.361Z,61.12
2018-12-29T14:25:31.245Z,60.78
2018-12-29T14:28:33.177Z,60.66
2018-12-29T14:31:35.107Z,60.68
2018-12-29T14:34:37.181Z,60.56
2018-12-29T14:37:39.230Z,60.50
2018-12-29T14:40:41.187Z,60.48
2018-12-29T14:43:57.132Z,60.48
2018-12-29T14:46:59.104Z,60.70
2018-12-29T14:50:01.009Z,61.01
2018-12-29T14:53:03.074Z,61.08
2018-12-29T14:56:05.319Z,61.00
2018-12-29T14:59:07.336Z,61.06
2018-12-29T15:02:09.589Z,61.02
2018-12-29T15:05:11.625Z,60.96
2018-12-29T15:08:13.646Z,60.82
2018-12-29T15:11:15.679Z,60.62
2018-12-29T15:14:17.727Z,60.43
2018-12-29T15:17:20.212Z,60.23
2018-12-29T15:20:22.204Z,60.10
2018-12-29T15:23:24.168Z,60.03
2018-12-29T15:26:26.095Z,60.01
2018-12-29T15:29:28.061Z,60.02
2018-12-29T15:32:29.983Z,60.16
2018-12-29T15:35:32.368Z,60.15
2018-12-29T15:38:34.734Z,60.09
2018-12-29T15:41:36.687Z,60.04
2018-12-29T15:44:39.106Z,60.07
2018-12-29T15:47:41.640Z,60.10
2018-12-29T15:50:43.587Z,60.12
2018-12-29T15:53:45.548Z,60.18
2018-12-29T15:56:49.387Z,60.23
2018-12-29T15:59:51.326Z,60.19
2018-12-29T16:02:53.249Z,60.16
2018-12-29T16:05:55.183Z,60.12
2018-12-29T16:08:57.242Z,60.15
2018-12-29T16:11:59.878Z,60.17
2018-12-29T16:15:01.806Z,60.22
2018-12-29T16:18:03.889Z,60.23
2018-12-29T16:21:05.785Z,60.30
2018-12-29T16:24:07.751Z,60.41
2018-12-29T16:27:09.615Z,60.52
2018-12-29T16:30:11.555Z,60.60
2018-12-29T16:33:13.641Z,60.66
2018-12-29T16:36:16.383Z,60.72
2018-12-29T16:39:18.480Z,60.68
2018-12-29T16:42:20.336Z,60.73
2018-12-29T16:45:22.317Z,60.72
2018-12-29T16:48:24.241Z,60.61
2018-12-29T16:51:26.796Z,60.54
2018-12-29T16:54:28.701Z,60.57
2018-12-29T16:57:30.680Z,60.56
2018-12-29T17:00:32.621Z,60.58
2018-12-29T17:03:34.534Z,60.52
2018-12-29T17:06:36.585Z,60.40
2018-12-29T17:09:38.609Z,60.35
2018-12-29T17:12:40.512Z,60.32
2018-12-29T17:15:42.771Z,60.33
2018-12-29T17:18:44.861Z,60.29
2018-12-29T17:21:47.475Z,60.35
2018-12-29T17:24:49.564Z,60.36
2018-12-29T17:27:51.582Z,60.35
2018-12-29T17:30:53.718Z,60.43
2018-12-29T17:33:55.782Z,60.41
2018-12-29T17:36:57.884Z,60.42
2018-12-29T17:40:00.078Z,60.38
2018-12-29T17:43:03.611Z,60.42
2018-12-29T17:46:26.086Z,60.46
2018-12-29T17:49:28.124Z,60.50
2018-12-29T17:52:33.004Z,60.73
2018-12-29T17:55:35.567Z,60.83
2018-12-29T17:58:37.509Z,60.81
2018-12-29T18:01:39.457Z,60.68
2018-12-29T18:04:41.382Z,60.71
2018-12-29T18:07:43.304Z,60.82
2018-12-29T18:10:45.347Z,60.92
2018-12-29T18:13:47.305Z,60.84
2018-12-29T18:16:49.688Z,60.92
2018-12-29T18:19:51.988Z,61.07
2018-12-29T18:22:55.135Z,61.01
2018-12-29T18:25:57.908Z,61.15
2018-12-29T18:29:00.139Z,61.18
2018-12-29T18:32:02.066Z,61.05
2018-12-29T18:35:04.377Z,60.95
2018-12-29T18:38:06.307Z,60.92
2018-12-29T18:41:08.377Z,61.04
2018-12-29T18:44:10.878Z,61.06
2018-12-29T18:47:12.826Z,60.91
2018-12-29T18:50:14.744Z,60.81
2018-12-29T18:53:16.786Z,60.69
2018-12-29T18:56:18.827Z,60.63
2018-12-29T18:59:20.796Z,60.61
2018-12-29T19:02:23.251Z,60.56
2018-12-29T19:05:25.238Z,60.53
2018-12-29T19:08:27.230Z,60.36
2018-12-29T19:11:29.209Z,60.39
2018-12-29T19:14:31.228Z,60.49
2018-12-29T19:17:33.158Z,60.53
2018-12-29T19:20:35.988Z,60.48
2018-12-29T19:23:39.699Z,60.51
2018-12-29T19:26:42.011Z,60.59
2018-12-29T19:29:43.938Z,60.60
2018-12-29T19:32:46.638Z,60.65
2018-12-29T19:35:48.592Z,60.52
2018-12-29T19:38:51.149Z,60.50
2018-12-29T19:41:54.996Z,60.49
2018-12-29T19:44:57.148Z,60.58
2018-12-29T19:47:59.038Z,60.60
2018-12-29T19:51:02.361Z,60.63
2018-12-29T19:54:04.873Z,60.75
2018-12-29T19:57:06.847Z,60.84
2018-12-29T20:00:09.782Z,60.69
2018-12-29T20:03:12.309Z,60.58
2018-12-29T20:06:15.093Z,60.55
2018-12-29T20:09:17.029Z,60.65
2018-12-29T20:12:19.422Z,60.70
2018-12-29T20:15:21.480Z,60.68
2018-12-29T20:18:23.397Z,60.60
2018-12-29T20:21:25.381Z,60.66
2018-12-29T20:24:27.718Z,60.84
2018-12-29T20:27:29.737Z,61.04
2018-12-29T20:30:32.712Z,61.20
2018-12-29T20:33:35.883Z,61.35
2018-12-29T20:36:38.385Z,61.40
2018-12-29T20:39:40.417Z,61.22
2018-12-29T20:42:42.508Z,61.03
2018-12-29T20:45:44.497Z,61.00
2018-12-29T20:48:47.047Z,61.01
2018-12-29T20:51:49.985Z,61.05
2018-12-29T20:54:53.162Z,61.26
2018-12-29T20:57:55.144Z,61.24
2018-12-29T21:00:57.057Z,61.01
2018-12-29T21:03:59.067Z,60.89
2018-12-29T21:07:03.697Z,60.99
2018-12-29T21:10:08.079Z,61.10
2018-12-29T21:13:11.902Z,60.98
2018-12-29T21:16:15.347Z,60.81
2018-12-29T21:19:19.617Z,60.73
2018-12-29T21:22:23.888Z,60.76
2018-12-29T21:25:26.554Z,60.62
2018-12-29T21:28:28.942Z,60.72
2018-12-29T21:31:30.978Z,60.80
2018-12-29T21:34:33.284Z,60.84
2018-12-29T21:37:37.320Z,60.89
2018-12-29T21:40:39.354Z,60.94
2018-12-29T21:43:42.961Z,60.82
2018-12-29T21:46:45.087Z,60.87
2018-12-29T21:52:49.251Z,60.65
2018-12-29T21:55:51.421Z,60.73
2018-12-29T21:58:53.287Z,60.80
2018-12-29T22:01:55.198Z,60.71
2018-12-29T22:04:57.100Z,60.57
2018-12-29T22:07:58.986Z,60.55
2018-12-29T22:11:00.910Z,60.42
2018-12-29T22:14:02.837Z,60.52
2018-12-29T22:17:04.921Z,60.58
2018-12-29T22:20:06.997Z,60.61
2018-12-29T22:23:08.915Z,60.51
2018-12-29T22:26:10.902Z,60.35
2018-12-29T22:29:12.816Z,60.26
2018-12-29T22:32:14.739Z,60.22
2018-12-29T22:35:16.844Z,60.12
2018-12-29T22:38:18.799Z,60.16
2018-12-29T22:44:36.059Z,60.60
2018-12-29T22:47:37.950Z,60.67
2018-12-29T22:50:41.083Z,60.90
2018-12-29T22:53:43.554Z,60.93
2018-12-29T22:56:45.697Z,61.07
2018-12-29T22:59:47.582Z,61.20
2018-12-29T23:02:49.432Z,61.25
2018-12-29T23:05:51.630Z,61.33
2018-12-29T23:08:53.693Z,61.36
2018-12-29T23:11:55.616Z,61.25
2018-12-29T23:14:57.489Z,61.22
2018-12-29T23:17:59.423Z,61.14
2018-12-29T23:21:01.314Z,61.22
2018-12-29T23:24:03.255Z,61.24
2018-12-29T23:27:06.582Z,61.23
2018-12-29T23:30:08.945Z,61.24
2018-12-29T23:33:11.297Z,61.17
2018-12-29T23:36:13.273Z,61.17
2018-12-29T23:39:15.262Z,61.13
2018-12-29T23:42:17.904Z,61.23
2018-12-29T23:45:19.790Z,61.28
2018-12-29T23:48:22.169Z,61.26
2018-12-29T23:51:24.139Z,61.20
2018-12-29T23:54:26.054Z,61.23
2018-12-29T23:57:28.590Z,61.11
